sensor_id;sensor_type;location;lat;lon;timestamp;temperature;humidity
74488;DHT22;63019;51.080;13.642;2024-02-26T00:48:39;3.30;99.90
74488;DHT22;63019;51.080;13.642;2024-02-26T06:05:30;2.30;99.90
74488;DHT22;63019;51.080;13.642;2024-02-26T07:12:04;2.80;99.90
74488;DHT22;63019;51.080;13.642;2024-02-26T07:18:52;3.00;99.90
74488;DHT22;63019;51.080;13.642;2024-02-26T07:21:34;3.10;99.90
74488;DHT22;63019;51.080;13.642;2024-02-26T07:22:54;3.10;99.90
74488;DHT22;63019;51.080;13.642;2024-02-26T07:24:11;3.20;99.90
74488;DHT22;63019;51.080;13.642;2024-02-26T07:28:31;3.30;99.90
74488;DHT22;63019;51.080;13.642;2024-02-26T07:33:28;3.50;99.90
74488;DHT22;63019;51.080;13.642;2024-02-26T07:35:33;3.60;99.90
74488;DHT22;63019;51.080;13.642;2024-02-26T07:40:36;3.60;99.90
74488;DHT22;63019;51.080;13.642;2024-02-26T07:42:27;3.60;99.90
74488;DHT22;63019;51.080;13.642;2024-02-26T07:43:56;3.60;99.90
74488;DHT22;63019;51.080;13.642;2024-02-26T07:45:47;3.70;99.90
74488;DHT22;63019;51.080;13.642;2024-02-26T07:47:01;3.70;99.90
74488;DHT22;63019;51.080;13.642;2024-02-26T07:48:20;3.80;99.90
74488;DHT22;63019;51.080;13.642;2024-02-26T07:49:56;3.80;99.90
74488;DHT22;63019;51.080;13.642;2024-02-26T07:51:09;3.90;99.90
74488;DHT22;63019;51.080;13.642;2024-02-26T07:52:29;4.10;99.90
74488;DHT22;63019;51.080;13.642;2024-02-26T07:53:43;4.20;99.90
74488;DHT22;63019;51.080;13.642;2024-02-26T07:55:27;4.30;99.90
74488;DHT22;63019;51.080;13.642;2024-02-26T07:56:36;4.40;99.90
74488;DHT22;63019;51.080;13.642;2024-02-26T07:58:20;4.50;99.90
74488;DHT22;63019;51.080;13.642;2024-02-26T07:59:44;4.60;99.90
74488;DHT22;63019;51.080;13.642;2024-02-26T08:01:06;4.60;99.90
74488;DHT22;63019;51.080;13.642;2024-02-26T08:02:19;4.70;99.90
74488;DHT22;63019;51.080;13.642;2024-02-26T08:03:53;4.70;99.90
74488;DHT22;63019;51.080;13.642;2024-02-26T08:05:02;4.80;99.90
74488;DHT22;63019;51.080;13.642;2024-02-26T08:06:04;4.90;99.90
74488;DHT22;63019;51.080;13.642;2024-02-26T08:07:32;4.90;99.90
74488;DHT22;63019;51.080;13.642;2024-02-26T08:08:47;5.00;99.90
74488;DHT22;63019;51.080;13.642;2024-02-26T08:10:41;5.10;99.90
74488;DHT22;63019;51.080;13.642;2024-02-26T08:12:48;5.20;99.90
74488;DHT22;63019;51.080;13.642;2024-02-26T08:13:53;5.30;99.90
74488;DHT22;63019;51.080;13.642;2024-02-26T08:15:42;5.30;99.90
74488;DHT22;63019;51.080;13.642;2024-02-26T08:17:05;5.40;99.90
74488;DHT22;63019;51.080;13.642;2024-02-26T08:18:12;5.50;99.90
74488;DHT22;63019;51.080;13.642;2024-02-26T08:19:14;5.50;99.90
74488;DHT22;63019;51.080;13.642;2024-02-26T08:20:17;5.60;99.90
74488;DHT22;63019;51.080;13.642;2024-02-26T08:21:20;5.60;99.90
74488;DHT22;63019;51.080;13.642;2024-02-26T08:22:22;5.70;99.90
74488;DHT22;63019;51.080;13.642;2024-02-26T08:23:24;5.70;99.90
74488;DHT22;63019;51.080;13.642;2024-02-26T08:24:27;5.80;99.90
74488;DHT22;63019;51.080;13.642;2024-02-26T08:25:30;5.80;99.90
74488;DHT22;63019;51.080;13.642;2024-02-26T08:26:32;5.80;99.90
74488;DHT22;63019;51.080;13.642;2024-02-26T08:27:33;5.90;99.90
74488;DHT22;63019;51.080;13.642;2024-02-26T08:28:37;5.90;99.90
74488;DHT22;63019;51.080;13.642;2024-02-26T08:29:44;6.00;99.90
74488;DHT22;63019;51.080;13.642;2024-02-26T08:30:46;6.00;99.90
74488;DHT22;63019;51.080;13.642;2024-02-26T08:31:48;6.10;99.90
74488;DHT22;63019;51.080;13.642;2024-02-26T08:32:50;6.10;99.90
74488;DHT22;63019;51.080;13.642;2024-02-26T08:33:53;6.20;99.90
74488;DHT22;63019;51.080;13.642;2024-02-26T08:34:56;6.20;99.90
74488;DHT22;63019;51.080;13.642;2024-02-26T08:35:58;6.30;99.90
74488;DHT22;63019;51.080;13.642;2024-02-26T08:37:02;6.30;99.90
74488;DHT22;63019;51.080;13.642;2024-02-26T08:38:04;6.30;99.90
74488;DHT22;63019;51.080;13.642;2024-02-26T08:39:06;6.40;99.90
74488;DHT22;63019;51.080;13.642;2024-02-26T08:40:09;6.40;99.90
74488;DHT22;63019;51.080;13.642;2024-02-26T08:41:12;6.50;99.90
74488;DHT22;63019;51.080;13.642;2024-02-26T08:42:14;6.50;99.90
74488;DHT22;63019;51.080;13.642;2024-02-26T08:43:17;6.50;99.90
74488;DHT22;63019;51.080;13.642;2024-02-26T08:44:20;6.60;99.90
74488;DHT22;63019;51.080;13.642;2024-02-26T08:45:22;6.60;99.90
74488;DHT22;63019;51.080;13.642;2024-02-26T08:46:28;6.60;99.90
74488;DHT22;63019;51.080;13.642;2024-02-26T08:47:30;6.70;99.90
74488;DHT22;63019;51.080;13.642;2024-02-26T08:48:32;6.70;99.90
74488;DHT22;63019;51.080;13.642;2024-02-26T08:49:34;6.70;99.90
74488;DHT22;63019;51.080;13.642;2024-02-26T08:50:36;6.70;99.90
74488;DHT22;63019;51.080;13.642;2024-02-26T08:51:42;6.80;99.90
74488;DHT22;63019;51.080;13.642;2024-02-26T08:52:44;6.80;99.90
74488;DHT22;63019;51.080;13.642;2024-02-26T08:53:50;6.90;99.90
74488;DHT22;63019;51.080;13.642;2024-02-26T08:54:53;6.90;99.90
74488;DHT22;63019;51.080;13.642;2024-02-26T08:55:55;6.90;99.90
74488;DHT22;63019;51.080;13.642;2024-02-26T08:56:57;7.00;99.90
74488;DHT22;63019;51.080;13.642;2024-02-26T08:57:59;7.00;99.90
74488;DHT22;63019;51.080;13.642;2024-02-26T08:59:01;7.00;99.90
74488;DHT22;63019;51.080;13.642;2024-02-26T09:00:06;7.10;99.90
74488;DHT22;63019;51.080;13.642;2024-02-26T09:01:08;7.10;99.90
74488;DHT22;63019;51.080;13.642;2024-02-26T09:02:11;7.20;99.90
74488;DHT22;63019;51.080;13.642;2024-02-26T09:03:13;7.20;99.90
74488;DHT22;63019;51.080;13.642;2024-02-26T09:04:15;7.20;99.90
74488;DHT22;63019;51.080;13.642;2024-02-26T09:05:17;7.30;99.90
74488;DHT22;63019;51.080;13.642;2024-02-26T09:06:19;7.30;99.90
74488;DHT22;63019;51.080;13.642;2024-02-26T09:07:21;7.30;99.90
74488;DHT22;63019;51.080;13.642;2024-02-26T09:08:24;7.40;99.90
74488;DHT22;63019;51.080;13.642;2024-02-26T09:09:26;7.40;99.90
74488;DHT22;63019;51.080;13.642;2024-02-26T09:10:51;7.50;99.90
74488;DHT22;63019;51.080;13.642;2024-02-26T09:12:24;7.50;99.90
74488;DHT22;63019;51.080;13.642;2024-02-26T09:13:40;7.60;99.90
74488;DHT22;63019;51.080;13.642;2024-02-26T09:14:44;7.60;99.90
74488;DHT22;63019;51.080;13.642;2024-02-26T09:15:46;7.70;99.90
74488;DHT22;63019;51.080;13.642;2024-02-26T09:16:48;7.70;99.90
74488;DHT22;63019;51.080;13.642;2024-02-26T09:17:50;7.70;99.90
74488;DHT22;63019;51.080;13.642;2024-02-26T09:18:53;7.80;99.90
74488;DHT22;63019;51.080;13.642;2024-02-26T09:19:56;7.80;99.90
74488;DHT22;63019;51.080;13.642;2024-02-26T09:20:58;7.90;99.90
74488;DHT22;63019;51.080;13.642;2024-02-26T09:22:00;7.90;99.90
74488;DHT22;63019;51.080;13.642;2024-02-26T09:23:02;7.90;99.90
74488;DHT22;63019;51.080;13.642;2024-02-26T09:24:05;7.90;99.90
74488;DHT22;63019;51.080;13.642;2024-02-26T09:25:07;8.00;99.90
74488;DHT22;63019;51.080;13.642;2024-02-26T09:26:09;8.00;99.90
74488;DHT22;63019;51.080;13.642;2024-02-26T09:27:11;8.10;99.90
74488;DHT22;63019;51.080;13.642;2024-02-26T09:28:14;8.10;99.90
74488;DHT22;63019;51.080;13.642;2024-02-26T09:29:18;8.20;99.90
74488;DHT22;63019;51.080;13.642;2024-02-26T09:30:20;8.20;99.90
74488;DHT22;63019;51.080;13.642;2024-02-26T09:31:22;8.20;99.90
74488;DHT22;63019;51.080;13.642;2024-02-26T09:32:24;8.30;99.90
74488;DHT22;63019;51.080;13.642;2024-02-26T09:33:26;8.30;99.90
74488;DHT22;63019;51.080;13.642;2024-02-26T09:34:29;8.40;99.90
74488;DHT22;63019;51.080;13.642;2024-02-26T09:35:31;8.40;99.90
74488;DHT22;63019;51.080;13.642;2024-02-26T09:36:34;8.50;99.90
74488;DHT22;63019;51.080;13.642;2024-02-26T09:37:36;8.50;99.90
74488;DHT22;63019;51.080;13.642;2024-02-26T09:38:38;8.60;99.90
74488;DHT22;63019;51.080;13.642;2024-02-26T09:39:57;8.60;99.90
74488;DHT22;63019;51.080;13.642;2024-02-26T09:40:59;8.60;99.90
74488;DHT22;63019;51.080;13.642;2024-02-26T09:42:04;8.70;99.90
74488;DHT22;63019;51.080;13.642;2024-02-26T09:43:10;8.70;99.90
74488;DHT22;63019;51.080;13.642;2024-02-26T09:44:19;8.80;99.90
74488;DHT22;63019;51.080;13.642;2024-02-26T09:45:25;8.80;99.90
74488;DHT22;63019;51.080;13.642;2024-02-26T09:46:30;8.80;99.90
74488;DHT22;63019;51.080;13.642;2024-02-26T09:47:32;8.80;99.90
74488;DHT22;63019;51.080;13.642;2024-02-26T09:48:35;8.90;99.90
74488;DHT22;63019;51.080;13.642;2024-02-26T09:49:38;8.90;99.90
74488;DHT22;63019;51.080;13.642;2024-02-26T09:50:42;8.90;99.90
74488;DHT22;63019;51.080;13.642;2024-02-26T09:51:45;9.00;99.90
74488;DHT22;63019;51.080;13.642;2024-02-26T09:52:49;9.00;99.90
74488;DHT22;63019;51.080;13.642;2024-02-26T09:53:52;9.00;99.90
74488;DHT22;63019;51.080;13.642;2024-02-26T09:54:55;9.00;99.90
74488;DHT22;63019;51.080;13.642;2024-02-26T09:55:58;9.10;99.90
74488;DHT22;63019;51.080;13.642;2024-02-26T09:57:01;9.10;99.90
74488;DHT22;63019;51.080;13.642;2024-02-26T09:58:05;9.20;99.90
74488;DHT22;63019;51.080;13.642;2024-02-26T09:59:12;9.20;99.90
74488;DHT22;63019;51.080;13.642;2024-02-26T10:00:21;9.30;99.90
74488;DHT22;63019;51.080;13.642;2024-02-26T10:01:23;9.40;99.90
74488;DHT22;63019;51.080;13.642;2024-02-26T10:02:28;9.40;99.90
74488;DHT22;63019;51.080;13.642;2024-02-26T10:03:39;9.50;99.90
74488;DHT22;63019;51.080;13.642;2024-02-26T10:04:43;9.50;99.90
74488;DHT22;63019;51.080;13.642;2024-02-26T10:05:51;9.60;99.90
74488;DHT22;63019;51.080;13.642;2024-02-26T10:06:53;9.60;99.90
74488;DHT22;63019;51.080;13.642;2024-02-26T10:07:56;9.60;99.90
74488;DHT22;63019;51.080;13.642;2024-02-26T10:09:02;9.70;99.90
74488;DHT22;63019;51.080;13.642;2024-02-26T10:10:08;9.70;99.90
74488;DHT22;63019;51.080;13.642;2024-02-26T10:11:10;9.80;99.90
74488;DHT22;63019;51.080;13.642;2024-02-26T10:12:13;9.80;99.90
74488;DHT22;63019;51.080;13.642;2024-02-26T10:13:15;9.90;99.90
74488;DHT22;63019;51.080;13.642;2024-02-26T10:14:17;10.00;99.90
74488;DHT22;63019;51.080;13.642;2024-02-26T10:15:19;10.10;99.90
74488;DHT22;63019;51.080;13.642;2024-02-26T10:16:21;10.10;99.90
74488;DHT22;63019;51.080;13.642;2024-02-26T10:17:24;10.20;99.90
74488;DHT22;63019;51.080;13.642;2024-02-26T10:18:27;10.20;99.90
74488;DHT22;63019;51.080;13.642;2024-02-26T10:19:31;10.30;99.90
74488;DHT22;63019;51.080;13.642;2024-02-26T10:20:37;10.30;99.90
74488;DHT22;63019;51.080;13.642;2024-02-26T10:21:39;10.40;99.90
74488;DHT22;63019;51.080;13.642;2024-02-26T10:22:47;10.40;99.90
74488;DHT22;63019;51.080;13.642;2024-02-26T10:23:49;10.40;99.90
74488;DHT22;63019;51.080;13.642;2024-02-26T10:24:54;10.50;99.90
74488;DHT22;63019;51.080;13.642;2024-02-26T10:25:56;10.50;99.90
74488;DHT22;63019;51.080;13.642;2024-02-26T10:26:58;10.60;99.90
74488;DHT22;63019;51.080;13.642;2024-02-26T10:28:01;10.60;99.90
74488;DHT22;63019;51.080;13.642;2024-02-26T10:29:08;10.70;99.90
74488;DHT22;63019;51.080;13.642;2024-02-26T10:30:20;10.80;99.90
74488;DHT22;63019;51.080;13.642;2024-02-26T10:31:23;10.80;99.90
74488;DHT22;63019;51.080;13.642;2024-02-26T10:32:25;10.90;99.90
74488;DHT22;63019;51.080;13.642;2024-02-26T10:33:27;10.90;99.90
74488;DHT22;63019;51.080;13.642;2024-02-26T10:34:32;11.00;99.90
74488;DHT22;63019;51.080;13.642;2024-02-26T10:35:36;11.10;99.90
74488;DHT22;63019;51.080;13.642;2024-02-26T10:36:42;11.20;99.90
74488;DHT22;63019;51.080;13.642;2024-02-26T10:37:54;11.20;99.90
74488;DHT22;63019;51.080;13.642;2024-02-26T10:38:56;11.20;99.90
74488;DHT22;63019;51.080;13.642;2024-02-26T10:39:58;11.30;99.90
74488;DHT22;63019;51.080;13.642;2024-02-26T10:41:05;11.30;99.90
74488;DHT22;63019;51.080;13.642;2024-02-26T10:42:12;11.30;99.90
74488;DHT22;63019;51.080;13.642;2024-02-26T10:43:14;11.40;99.90
74488;DHT22;63019;51.080;13.642;2024-02-26T10:44:18;11.50;99.90
74488;DHT22;63019;51.080;13.642;2024-02-26T10:45:21;11.40;99.90
74488;DHT22;63019;51.080;13.642;2024-02-26T10:46:23;11.40;99.90
74488;DHT22;63019;51.080;13.642;2024-02-26T10:47:25;11.40;99.90
74488;DHT22;63019;51.080;13.642;2024-02-26T10:48:27;11.50;99.90
74488;DHT22;63019;51.080;13.642;2024-02-26T10:49:29;11.40;99.90
74488;DHT22;63019;51.080;13.642;2024-02-26T10:50:31;11.30;99.90
74488;DHT22;63019;51.080;13.642;2024-02-26T10:51:37;11.30;99.90
74488;DHT22;63019;51.080;13.642;2024-02-26T10:52:40;11.30;99.90
74488;DHT22;63019;51.080;13.642;2024-02-26T10:53:48;11.40;99.90
74488;DHT22;63019;51.080;13.642;2024-02-26T10:55:03;11.40;99.90
74488;DHT22;63019;51.080;13.642;2024-02-26T10:56:06;11.50;99.90
74488;DHT22;63019;51.080;13.642;2024-02-26T10:57:10;11.50;99.90
74488;DHT22;63019;51.080;13.642;2024-02-26T10:58:13;11.60;99.90
74488;DHT22;63019;51.080;13.642;2024-02-26T10:59:17;11.70;99.90
74488;DHT22;63019;51.080;13.642;2024-02-26T11:00:22;11.70;99.90
74488;DHT22;63019;51.080;13.642;2024-02-26T11:01:26;11.80;99.90
74488;DHT22;63019;51.080;13.642;2024-02-26T11:02:33;11.80;99.90
74488;DHT22;63019;51.080;13.642;2024-02-26T11:03:39;11.80;99.90
74488;DHT22;63019;51.080;13.642;2024-02-26T11:04:42;11.80;99.90
74488;DHT22;63019;51.080;13.642;2024-02-26T11:05:48;11.80;99.90
74488;DHT22;63019;51.080;13.642;2024-02-26T11:06:51;11.80;99.90
74488;DHT22;63019;51.080;13.642;2024-02-26T11:07:54;11.80;99.90
74488;DHT22;63019;51.080;13.642;2024-02-26T11:08:58;11.90;99.90
74488;DHT22;63019;51.080;13.642;2024-02-26T11:10:03;11.90;99.90
74488;DHT22;63019;51.080;13.642;2024-02-26T11:11:05;11.90;99.90
74488;DHT22;63019;51.080;13.642;2024-02-26T11:12:09;11.90;99.90
74488;DHT22;63019;51.080;13.642;2024-02-26T11:13:15;11.90;99.90
74488;DHT22;63019;51.080;13.642;2024-02-26T11:14:21;11.90;99.90
74488;DHT22;63019;51.080;13.642;2024-02-26T11:15:23;11.90;99.90
74488;DHT22;63019;51.080;13.642;2024-02-26T11:16:27;11.80;99.90
74488;DHT22;63019;51.080;13.642;2024-02-26T11:17:30;11.90;99.90
74488;DHT22;63019;51.080;13.642;2024-02-26T11:18:34;11.90;99.90
74488;DHT22;63019;51.080;13.642;2024-02-26T11:19:38;11.90;99.90
74488;DHT22;63019;51.080;13.642;2024-02-26T11:20:40;11.90;99.90
74488;DHT22;63019;51.080;13.642;2024-02-26T11:21:43;11.90;99.90
74488;DHT22;63019;51.080;13.642;2024-02-26T11:22:46;11.90;99.90
74488;DHT22;63019;51.080;13.642;2024-02-26T11:23:48;11.80;99.90
74488;DHT22;63019;51.080;13.642;2024-02-26T11:24:50;11.80;99.90
74488;DHT22;63019;51.080;13.642;2024-02-26T11:25:54;11.80;99.90
74488;DHT22;63019;51.080;13.642;2024-02-26T11:27:01;11.70;99.90
74488;DHT22;63019;51.080;13.642;2024-02-26T11:28:12;11.70;99.90
74488;DHT22;63019;51.080;13.642;2024-02-26T11:29:19;11.70;99.90
74488;DHT22;63019;51.080;13.642;2024-02-26T11:30:23;11.80;99.90
74488;DHT22;63019;51.080;13.642;2024-02-26T11:31:26;11.70;99.90
74488;DHT22;63019;51.080;13.642;2024-02-26T11:32:30;11.80;99.90
74488;DHT22;63019;51.080;13.642;2024-02-26T11:33:33;11.80;99.90
74488;DHT22;63019;51.080;13.642;2024-02-26T11:34:38;11.90;99.90
74488;DHT22;63019;51.080;13.642;2024-02-26T11:35:41;11.90;99.90
74488;DHT22;63019;51.080;13.642;2024-02-26T11:36:43;11.90;99.90
74488;DHT22;63019;51.080;13.642;2024-02-26T11:37:53;11.90;99.90
74488;DHT22;63019;51.080;13.642;2024-02-26T11:38:55;12.00;99.90
74488;DHT22;63019;51.080;13.642;2024-02-26T11:40:01;12.00;99.90
74488;DHT22;63019;51.080;13.642;2024-02-26T11:41:05;11.90;99.90
74488;DHT22;63019;51.080;13.642;2024-02-26T11:42:16;11.90;99.90
74488;DHT22;63019;51.080;13.642;2024-02-26T11:43:23;12.00;99.90
74488;DHT22;63019;51.080;13.642;2024-02-26T11:44:29;12.00;99.90
74488;DHT22;63019;51.080;13.642;2024-02-26T11:45:48;12.00;99.90
74488;DHT22;63019;51.080;13.642;2024-02-26T11:46:51;12.10;99.90
74488;DHT22;63019;51.080;13.642;2024-02-26T11:47:56;12.10;99.90
74488;DHT22;63019;51.080;13.642;2024-02-26T11:49:03;12.00;99.90
74488;DHT22;63019;51.080;13.642;2024-02-26T11:50:41;12.00;99.90
74488;DHT22;63019;51.080;13.642;2024-02-26T11:51:51;12.00;99.90
74488;DHT22;63019;51.080;13.642;2024-02-26T11:53:30;12.00;99.90
74488;DHT22;63019;51.080;13.642;2024-02-26T11:58:41;11.80;99.90
74488;DHT22;63019;51.080;13.642;2024-02-26T11:59:45;11.80;99.90
74488;DHT22;63019;51.080;13.642;2024-02-26T12:00:47;11.80;99.90
74488;DHT22;63019;51.080;13.642;2024-02-26T12:01:49;11.80;99.90
74488;DHT22;63019;51.080;13.642;2024-02-26T12:02:55;11.70;99.90
74488;DHT22;63019;51.080;13.642;2024-02-26T12:04:02;11.70;99.90
74488;DHT22;63019;51.080;13.642;2024-02-26T12:05:26;11.70;99.90
74488;DHT22;63019;51.080;13.642;2024-02-26T12:06:41;11.70;99.90
74488;DHT22;63019;51.080;13.642;2024-02-26T12:07:46;11.70;99.90
74488;DHT22;63019;51.080;13.642;2024-02-26T12:08:49;11.70;99.90
74488;DHT22;63019;51.080;13.642;2024-02-26T12:09:51;11.70;99.90
74488;DHT22;63019;51.080;13.642;2024-02-26T12:10:54;11.70;99.90
74488;DHT22;63019;51.080;13.642;2024-02-26T12:11:57;11.70;99.90
74488;DHT22;63019;51.080;13.642;2024-02-26T12:13:13;11.70;99.90
74488;DHT22;63019;51.080;13.642;2024-02-26T12:14:25;11.70;99.90
74488;DHT22;63019;51.080;13.642;2024-02-26T12:15:37;11.70;99.90
74488;DHT22;63019;51.080;13.642;2024-02-26T12:16:40;11.70;99.90
74488;DHT22;63019;51.080;13.642;2024-02-26T12:17:48;11.70;99.90
74488;DHT22;63019;51.080;13.642;2024-02-26T12:18:51;11.70;99.90
74488;DHT22;63019;51.080;13.642;2024-02-26T12:19:53;11.70;99.90
74488;DHT22;63019;51.080;13.642;2024-02-26T12:21:01;11.70;99.90
74488;DHT22;63019;51.080;13.642;2024-02-26T12:22:06;11.70;99.90
74488;DHT22;63019;51.080;13.642;2024-02-26T12:23:08;11.70;99.90
74488;DHT22;63019;51.080;13.642;2024-02-26T12:24:14;11.70;99.90
74488;DHT22;63019;51.080;13.642;2024-02-26T12:25:21;11.70;99.90
74488;DHT22;63019;51.080;13.642;2024-02-26T12:26:23;11.70;99.90
74488;DHT22;63019;51.080;13.642;2024-02-26T12:27:26;11.80;99.90
74488;DHT22;63019;51.080;13.642;2024-02-26T12:28:30;11.80;99.90
74488;DHT22;63019;51.080;13.642;2024-02-26T12:29:32;11.80;99.90
74488;DHT22;63019;51.080;13.642;2024-02-26T12:30:34;11.80;99.90
74488;DHT22;63019;51.080;13.642;2024-02-26T12:31:37;11.80;99.90
74488;DHT22;63019;51.080;13.642;2024-02-26T12:32:40;11.80;99.90
74488;DHT22;63019;51.080;13.642;2024-02-26T12:33:42;11.70;99.90
74488;DHT22;63019;51.080;13.642;2024-02-26T12:34:44;11.70;99.90
74488;DHT22;63019;51.080;13.642;2024-02-26T12:35:47;11.70;99.90
74488;DHT22;63019;51.080;13.642;2024-02-26T12:36:50;11.60;99.90
74488;DHT22;63019;51.080;13.642;2024-02-26T12:37:53;11.70;99.90
74488;DHT22;63019;51.080;13.642;2024-02-26T12:38:56;11.60;99.90
74488;DHT22;63019;51.080;13.642;2024-02-26T12:39:58;11.60;99.90
74488;DHT22;63019;51.080;13.642;2024-02-26T12:41:00;11.60;99.90
74488;DHT22;63019;51.080;13.642;2024-02-26T12:42:02;11.60;99.90
74488;DHT22;63019;51.080;13.642;2024-02-26T12:43:05;11.60;99.90
74488;DHT22;63019;51.080;13.642;2024-02-26T12:44:08;11.70;99.90
74488;DHT22;63019;51.080;13.642;2024-02-26T12:45:11;11.70;99.90
74488;DHT22;63019;51.080;13.642;2024-02-26T12:46:13;11.70;99.90
74488;DHT22;63019;51.080;13.642;2024-02-26T12:47:17;11.70;99.90
74488;DHT22;63019;51.080;13.642;2024-02-26T12:48:20;11.70;99.90
74488;DHT22;63019;51.080;13.642;2024-02-26T12:49:22;11.70;99.90
74488;DHT22;63019;51.080;13.642;2024-02-26T12:50:25;11.70;99.90
74488;DHT22;63019;51.080;13.642;2024-02-26T12:51:27;11.70;99.90
74488;DHT22;63019;51.080;13.642;2024-02-26T12:52:34;11.70;99.90
74488;DHT22;63019;51.080;13.642;2024-02-26T12:53:36;11.70;99.90
74488;DHT22;63019;51.080;13.642;2024-02-26T12:54:39;11.60;99.90
74488;DHT22;63019;51.080;13.642;2024-02-26T12:55:43;11.60;99.90
74488;DHT22;63019;51.080;13.642;2024-02-26T12:56:45;11.60;99.90
74488;DHT22;63019;51.080;13.642;2024-02-26T12:57:48;11.60;99.90
74488;DHT22;63019;51.080;13.642;2024-02-26T12:58:51;11.60;99.90
74488;DHT22;63019;51.080;13.642;2024-02-26T12:59:54;11.70;99.90
74488;DHT22;63019;51.080;13.642;2024-02-26T13:00:56;11.60;99.90
74488;DHT22;63019;51.080;13.642;2024-02-26T13:01:58;11.60;99.90
74488;DHT22;63019;51.080;13.642;2024-02-26T13:03:01;11.70;99.90
74488;DHT22;63019;51.080;13.642;2024-02-26T13:04:03;11.60;99.90
74488;DHT22;63019;51.080;13.642;2024-02-26T13:05:09;11.60;99.90
74488;DHT22;63019;51.080;13.642;2024-02-26T13:06:11;11.70;99.90
74488;DHT22;63019;51.080;13.642;2024-02-26T13:07:13;11.60;99.90
74488;DHT22;63019;51.080;13.642;2024-02-26T13:08:20;11.60;99.90
74488;DHT22;63019;51.080;13.642;2024-02-26T13:09:22;11.60;99.90
74488;DHT22;63019;51.080;13.642;2024-02-26T13:10:24;11.60;99.90
74488;DHT22;63019;51.080;13.642;2024-02-26T13:11:28;11.60;99.90
74488;DHT22;63019;51.080;13.642;2024-02-26T13:12:30;11.60;99.90
74488;DHT22;63019;51.080;13.642;2024-02-26T13:13:34;11.60;99.90
74488;DHT22;63019;51.080;13.642;2024-02-26T13:14:37;11.60;99.90
74488;DHT22;63019;51.080;13.642;2024-02-26T13:15:39;11.60;99.90
74488;DHT22;63019;51.080;13.642;2024-02-26T13:16:41;11.60;99.90
74488;DHT22;63019;51.080;13.642;2024-02-26T13:17:47;11.60;99.90
74488;DHT22;63019;51.080;13.642;2024-02-26T13:18:50;11.60;99.90
74488;DHT22;63019;51.080;13.642;2024-02-26T13:19:52;11.50;99.90
74488;DHT22;63019;51.080;13.642;2024-02-26T13:21:12;11.50;99.90
74488;DHT22;63019;51.080;13.642;2024-02-26T13:22:15;11.50;99.90
74488;DHT22;63019;51.080;13.642;2024-02-26T13:23:16;11.50;99.90
74488;DHT22;63019;51.080;13.642;2024-02-26T13:24:20;11.60;99.90
74488;DHT22;63019;51.080;13.642;2024-02-26T13:25:22;11.60;99.90
74488;DHT22;63019;51.080;13.642;2024-02-26T13:26:24;11.50;99.90
74488;DHT22;63019;51.080;13.642;2024-02-26T13:27:26;11.60;99.90
74488;DHT22;63019;51.080;13.642;2024-02-26T13:28:28;11.60;99.90
74488;DHT22;63019;51.080;13.642;2024-02-26T13:29:30;11.60;99.90
74488;DHT22;63019;51.080;13.642;2024-02-26T13:30:32;11.60;99.90
74488;DHT22;63019;51.080;13.642;2024-02-26T13:31:40;11.60;99.90
74488;DHT22;63019;51.080;13.642;2024-02-26T13:32:45;11.60;99.90
74488;DHT22;63019;51.080;13.642;2024-02-26T13:33:49;11.60;99.90
74488;DHT22;63019;51.080;13.642;2024-02-26T13:34:51;11.60;99.90
74488;DHT22;63019;51.080;13.642;2024-02-26T13:35:57;11.60;99.90
74488;DHT22;63019;51.080;13.642;2024-02-26T13:37:00;11.60;99.90
74488;DHT22;63019;51.080;13.642;2024-02-26T13:38:02;11.60;99.90
74488;DHT22;63019;51.080;13.642;2024-02-26T13:39:05;11.60;99.90
74488;DHT22;63019;51.080;13.642;2024-02-26T13:40:10;11.60;99.90
74488;DHT22;63019;51.080;13.642;2024-02-26T13:41:12;11.70;99.90
74488;DHT22;63019;51.080;13.642;2024-02-26T13:42:14;11.60;99.90
74488;DHT22;63019;51.080;13.642;2024-02-26T13:43:17;11.60;99.90
74488;DHT22;63019;51.080;13.642;2024-02-26T13:44:20;11.60;99.90
74488;DHT22;63019;51.080;13.642;2024-02-26T13:45:22;11.60;99.90
74488;DHT22;63019;51.080;13.642;2024-02-26T13:46:24;11.60;99.90
74488;DHT22;63019;51.080;13.642;2024-02-26T13:47:28;11.60;99.90
74488;DHT22;63019;51.080;13.642;2024-02-26T13:48:33;11.60;99.90
74488;DHT22;63019;51.080;13.642;2024-02-26T13:49:35;11.50;99.90
74488;DHT22;63019;51.080;13.642;2024-02-26T13:50:41;11.50;99.90
74488;DHT22;63019;51.080;13.642;2024-02-26T13:51:45;11.60;99.90
74488;DHT22;63019;51.080;13.642;2024-02-26T13:52:50;11.60;99.90
74488;DHT22;63019;51.080;13.642;2024-02-26T13:53:55;11.60;99.90
74488;DHT22;63019;51.080;13.642;2024-02-26T13:55:17;11.50;99.90
74488;DHT22;63019;51.080;13.642;2024-02-26T13:56:19;11.50;99.90
74488;DHT22;63019;51.080;13.642;2024-02-26T13:57:21;11.50;99.90
74488;DHT22;63019;51.080;13.642;2024-02-26T13:58:24;11.50;99.90
74488;DHT22;63019;51.080;13.642;2024-02-26T13:59:27;11.50;99.90
74488;DHT22;63019;51.080;13.642;2024-02-26T14:00:30;11.50;99.90
74488;DHT22;63019;51.080;13.642;2024-02-26T14:01:36;11.60;99.90
74488;DHT22;63019;51.080;13.642;2024-02-26T14:02:38;11.60;99.90
74488;DHT22;63019;51.080;13.642;2024-02-26T14:03:41;11.60;99.90
74488;DHT22;63019;51.080;13.642;2024-02-26T14:04:43;11.60;99.90
74488;DHT22;63019;51.080;13.642;2024-02-26T14:05:45;11.60;99.90
74488;DHT22;63019;51.080;13.642;2024-02-26T14:06:49;11.60;99.90
74488;DHT22;63019;51.080;13.642;2024-02-26T14:07:53;11.60;99.90
74488;DHT22;63019;51.080;13.642;2024-02-26T14:08:57;11.60;99.90
74488;DHT22;63019;51.080;13.642;2024-02-26T14:09:59;11.70;99.90
74488;DHT22;63019;51.080;13.642;2024-02-26T14:11:01;11.60;99.90
74488;DHT22;63019;51.080;13.642;2024-02-26T14:12:06;11.60;99.90
74488;DHT22;63019;51.080;13.642;2024-02-26T14:13:08;11.60;99.90
74488;DHT22;63019;51.080;13.642;2024-02-26T14:14:10;11.60;99.90
74488;DHT22;63019;51.080;13.642;2024-02-26T14:15:12;11.50;99.90
74488;DHT22;63019;51.080;13.642;2024-02-26T14:16:14;11.50;99.90
74488;DHT22;63019;51.080;13.642;2024-02-26T14:17:16;11.50;99.90
74488;DHT22;63019;51.080;13.642;2024-02-26T14:18:18;11.50;99.90
74488;DHT22;63019;51.080;13.642;2024-02-26T14:19:20;11.50;99.90
74488;DHT22;63019;51.080;13.642;2024-02-26T14:20:23;11.50;99.90
74488;DHT22;63019;51.080;13.642;2024-02-26T14:21:37;11.50;99.90
74488;DHT22;63019;51.080;13.642;2024-02-26T14:23:02;11.50;99.90
74488;DHT22;63019;51.080;13.642;2024-02-26T14:24:04;11.50;99.90
74488;DHT22;63019;51.080;13.642;2024-02-26T14:25:07;11.50;99.90
74488;DHT22;63019;51.080;13.642;2024-02-26T14:26:11;11.50;99.90